createdAt,value
2019-04-28T00:01:36.293Z,92.50
2019-04-28T00:04:06.305Z,92.30
2019-04-28T00:06:35.944Z,92.90
2019-04-28T00:09:08.027Z,92.60
2019-04-28T00:11:37.752Z,93.10
2019-04-28T00:14:08.476Z,92.70
2019-04-28T00:16:38.228Z,93.00
2019-04-28T00:19:07.888Z,93.40
2019-04-28T00:21:51.834Z,93.40
2019-04-28T00:24:32.679Z,93.40
2019-04-28T00:27:04.212Z,93.30
2019-04-28T00:29:40.382Z,93.50
2019-04-28T00:32:05.939Z,93.70
2019-04-28T00:34:35.542Z,93.40
2019-04-28T00:37:24.088Z,93.30
2019-04-28T00:39:53.802Z,93.10
2019-04-28T00:42:23.449Z,92.90
2019-04-28T00:44:57.175Z,93.10
2019-04-28T00:47:26.769Z,93.10
2019-04-28T00:49:56.906Z,93.00
2019-04-28T00:52:26.492Z,93.60
2019-04-28T00:54:56.134Z,93.40
2019-04-28T00:57:25.930Z,93.40
2019-04-28T00:59:58.763Z,93.60
2019-04-28T01:02:32.305Z,93.60
2019-04-28T01:05:01.993Z,93.30
2019-04-28T01:07:33.114Z,93.50
2019-04-28T01:10:03.074Z,93.60
2019-04-28T01:12:32.747Z,93.70
2019-04-28T01:15:04.740Z,93.70
2019-04-28T01:17:52.732Z,93.50
2019-04-28T01:20:22.842Z,93.30
2019-04-28T01:22:52.570Z,93.50
2019-04-28T01:25:23.354Z,93.60
2019-04-28T01:27:54.431Z,93.60
2019-04-28T01:30:55.901Z,93.30
2019-04-28T01:33:47.614Z,93.40
2019-04-28T01:36:17.319Z,93.10
2019-04-28T01:38:47.047Z,93.40
2019-04-28T01:41:16.631Z,93.40
2019-04-28T01:43:46.560Z,93.40
2019-04-28T01:46:16.315Z,93.50
2019-04-28T01:48:46.009Z,92.90
2019-04-28T01:51:15.700Z,93.10
2019-04-28T01:53:45.433Z,93.00
2019-04-28T01:56:15.087Z,92.70
2019-04-28T01:58:44.767Z,92.60
2019-04-28T02:01:14.496Z,92.60
2019-04-28T02:03:44.096Z,92.60
2019-04-28T02:06:13.956Z,92.20
2019-04-28T02:08:43.587Z,92.20
2019-04-28T02:11:14.389Z,91.90
2019-04-28T02:13:43.999Z,92.10
2019-04-28T02:16:13.766Z,91.90
2019-04-28T02:18:43.467Z,92.00
2019-04-28T02:21:27.009Z,91.90
2019-04-28T02:24:19.411Z,92.20
2019-04-28T02:26:52.353Z,92.10
2019-04-28T02:29:21.043Z,92.10
2019-04-28T02:31:51.161Z,91.70
2019-04-28T02:34:21.442Z,91.60
2019-04-28T02:36:53.768Z,91.50
2019-04-28T02:39:22.852Z,91.60
2019-04-28T02:41:52.486Z,91.80
2019-04-28T02:44:23.524Z,91.80
2019-04-28T02:46:53.689Z,91.40
2019-04-28T02:49:31.837Z,91.40
2019-04-28T02:52:14.058Z,91.20
2019-04-28T02:54:44.023Z,91.30
2019-04-28T02:57:13.640Z,91.30
2019-04-28T02:59:44.643Z,90.80
2019-04-28T03:02:14.985Z,91.10
2019-04-28T03:04:44.816Z,91.20
2019-04-28T03:07:14.774Z,90.80
2019-04-28T03:09:44.671Z,90.30
2019-04-28T03:12:14.392Z,90.40
2019-04-28T03:14:44.333Z,90.20
2019-04-28T03:17:14.035Z,90.10
2019-04-28T03:19:44.456Z,90.10
2019-04-28T03:22:14.146Z,90.10
2019-04-28T03:24:45.208Z,90.30
2019-04-28T03:27:27.291Z,90.30
2019-04-28T03:30:01.101Z,90.50
2019-04-28T03:32:50.960Z,90.60
2019-04-28T03:35:12.962Z,90.30
2019-04-28T03:37:41.347Z,90.00
2019-04-28T03:40:11.686Z,90.10
2019-04-28T03:42:43.692Z,90.00
2019-04-28T03:45:21.156Z,90.00
2019-04-28T03:47:51.095Z,89.30
2019-04-28T03:50:20.767Z,89.50
2019-04-28T03:52:51.304Z,89.60
2019-04-28T03:55:21.510Z,89.90
2019-04-28T03:57:51.627Z,90.00
2019-04-28T04:00:21.994Z,89.70
2019-04-28T04:02:51.906Z,90.10
2019-04-28T04:05:21.511Z,90.00
2019-04-28T04:07:51.575Z,90.10
2019-04-28T04:10:40.542Z,90.30
2019-04-28T04:13:15.012Z,90.20
2019-04-28T04:16:01.840Z,90.30
2019-04-28T04:18:43.818Z,90.30
2019-04-28T04:21:13.621Z,90.10
2019-04-28T04:23:43.415Z,90.10
2019-04-28T04:26:13.400Z,90.10
2019-04-28T04:28:43.427Z,90.10
2019-04-28T04:31:13.036Z,90.00
2019-04-28T04:33:43.153Z,90.20
2019-04-28T04:36:13.143Z,90.00
2019-04-28T04:38:46.007Z,90.10
2019-04-28T04:41:14.217Z,90.00
2019-04-28T04:43:43.827Z,90.00
2019-04-28T04:46:24.457Z,89.20
2019-04-28T04:48:54.071Z,89.10
2019-04-28T04:51:23.865Z,90.00
2019-04-28T04:53:53.688Z,89.60
2019-04-28T04:56:23.469Z,89.70
2019-04-28T04:58:53.117Z,89.30
2019-04-28T05:01:37.745Z,89.90
2019-04-28T05:04:22.433Z,89.70
2019-04-28T05:06:52.188Z,89.60
2019-04-28T05:09:21.936Z,89.80
2019-04-28T05:11:51.917Z,89.90
2019-04-28T05:14:21.715Z,89.80
2019-04-28T05:16:52.453Z,89.80
2019-04-28T05:19:22.240Z,89.60
2019-04-28T05:21:51.979Z,88.70
2019-04-28T05:24:53.000Z,87.70
2019-04-28T05:27:24.015Z,87.90
2019-04-28T05:29:52.574Z,87.80
2019-04-28T05:32:22.346Z,87.00
2019-04-28T05:34:52.894Z,87.00
2019-04-28T05:37:22.828Z,85.70
2019-04-28T05:39:52.770Z,85.70
2019-04-28T05:42:22.549Z,85.60
2019-04-28T05:44:52.690Z,85.50
2019-04-28T05:47:22.504Z,86.00
2019-04-28T05:50:11.080Z,85.80
2019-04-28T05:53:00.588Z,85.30
2019-04-28T05:55:41.984Z,85.10
2019-04-28T05:58:35.708Z,85.00
2019-04-28T06:01:24.293Z,84.00
2019-04-28T06:03:54.000Z,85.20
2019-04-28T06:06:26.031Z,83.30
2019-04-28T06:09:14.725Z,82.90
2019-04-28T06:11:44.353Z,81.10
2019-04-28T06:14:14.089Z,79.70
2019-04-28T06:16:43.813Z,79.10
2019-04-28T06:19:13.946Z,79.40
2019-04-28T06:21:43.540Z,78.20
2019-04-28T06:24:13.255Z,76.70
2019-04-28T06:26:43.268Z,77.20
2019-04-28T06:29:13.067Z,76.90
2019-04-28T06:31:42.748Z,75.10
2019-04-28T06:34:12.692Z,74.60
2019-04-28T06:36:42.485Z,74.10
2019-04-28T06:39:12.649Z,72.10
2019-04-28T06:41:42.283Z,73.10
2019-04-28T06:44:12.028Z,71.20
2019-04-28T06:46:41.766Z,72.80
2019-04-28T06:49:11.528Z,70.60
2019-04-28T06:51:41.300Z,69.30
2019-04-28T06:54:11.007Z,68.60
2019-04-28T06:56:41.175Z,67.00
2019-04-28T06:59:10.818Z,67.80
2019-04-28T07:01:41.332Z,67.00
2019-04-28T07:04:11.032Z,66.20
2019-04-28T07:06:40.822Z,66.80
2019-04-28T07:09:10.764Z,65.70
2019-04-28T07:11:42.567Z,65.60
2019-04-28T07:14:12.160Z,65.20
2019-04-28T07:16:42.421Z,65.60
2019-04-28T07:19:12.265Z,64.70
2019-04-28T07:21:57.170Z,64.80
2019-04-28T07:24:26.977Z,64.80
2019-04-28T07:26:58.398Z,65.30
2019-04-28T07:29:28.139Z,66.10
2019-04-28T07:31:58.520Z,66.30
2019-04-28T07:34:28.683Z,67.30
2019-04-28T07:36:58.610Z,67.10
2019-04-28T07:42:04.125Z,66.70
2019-04-28T07:44:34.045Z,66.20
2019-04-28T07:47:03.688Z,66.50
2019-04-28T07:49:33.567Z,66.40
2019-04-28T07:52:11.605Z,67.00
2019-04-28T07:54:42.336Z,67.30
2019-04-28T07:57:12.209Z,64.40
2019-04-28T07:59:42.028Z,65.60
2019-04-28T08:02:12.033Z,64.60
2019-04-28T08:04:41.866Z,62.50
2019-04-28T08:07:11.659Z,61.00
2019-04-28T08:09:41.616Z,60.90
2019-04-28T08:12:11.426Z,60.70
2019-04-28T08:14:41.045Z,59.60
2019-04-28T08:17:10.845Z,60.20
2019-04-28T08:19:40.545Z,61.00
2019-04-28T08:22:10.388Z,58.80
2019-04-28T08:24:40.022Z,58.40
2019-04-28T08:27:10.335Z,57.90
2019-04-28T08:29:40.059Z,59.50
2019-04-28T08:32:17.475Z,59.30
2019-04-28T08:34:47.303Z,60.10
2019-04-28T08:37:17.374Z,60.30
2019-04-28T08:39:46.974Z,57.90
2019-04-28T08:42:18.306Z,57.50
2019-04-28T08:44:48.686Z,56.00
2019-04-28T08:47:18.740Z,56.60
2019-04-28T08:49:48.469Z,55.50
2019-04-28T08:52:18.223Z,55.50
2019-04-28T08:54:48.393Z,55.40
2019-04-28T08:57:18.072Z,55.80
2019-04-28T08:59:48.052Z,54.00
2019-04-28T09:02:17.695Z,55.10
2019-04-28T09:04:48.396Z,54.90
2019-04-28T09:07:18.129Z,55.50
2019-04-28T09:09:48.050Z,54.00
2019-04-28T09:12:17.744Z,53.50
2019-04-28T09:14:47.745Z,50.40
2019-04-28T09:17:17.367Z,51.20
2019-04-28T09:19:47.123Z,53.00
2019-04-28T09:22:16.800Z,51.80
2019-04-28T09:24:46.694Z,49.10
2019-04-28T09:27:16.799Z,49.30
2019-04-28T09:29:46.516Z,48.60
2019-04-28T09:32:16.184Z,48.70
2019-04-28T09:34:45.898Z,49.10
2019-04-28T09:37:15.875Z,50.00
2019-04-28T09:39:49.627Z,48.90
2019-04-28T09:42:48.416Z,48.30
2019-04-28T09:45:24.009Z,49.20
2019-04-28T09:47:53.962Z,47.60
2019-04-28T09:50:23.739Z,47.60
2019-04-28T09:52:53.682Z,47.40
2019-04-28T09:55:23.329Z,46.80
2019-04-28T09:57:54.818Z,46.50
2019-04-28T10:00:24.471Z,44.80
2019-04-28T10:02:54.375Z,46.20
2019-04-28T10:05:24.225Z,44.40
2019-04-28T10:07:53.997Z,43.30
2019-04-28T10:10:23.795Z,42.00
2019-04-28T10:12:53.595Z,43.30
2019-04-28T10:15:23.587Z,43.40
2019-04-28T10:17:53.267Z,40.10
2019-04-28T10:20:23.499Z,40.80
2019-04-28T10:22:53.350Z,38.30
2019-04-28T10:25:23.156Z,34.20
2019-04-28T10:27:52.924Z,32.80
2019-04-28T10:30:22.825Z,33.80
2019-04-28T10:32:52.856Z,35.60
2019-04-28T10:35:22.896Z,34.90
2019-04-28T10:37:53.087Z,34.40
2019-04-28T10:40:53.238Z,30.90
2019-04-28T10:43:23.017Z,29.60
2019-04-28T10:45:53.305Z,29.90
2019-04-28T10:48:23.114Z,28.50
2019-04-28T10:50:52.791Z,27.40
2019-04-28T10:53:22.989Z,26.20
2019-04-28T10:55:52.669Z,27.20
2019-04-28T10:58:22.505Z,25.50
2019-04-28T11:00:52.258Z,25.70
2019-04-28T11:03:22.484Z,26.90
2019-04-28T11:05:52.098Z,27.30
2019-04-28T11:08:49.722Z,28.60
2019-04-28T11:11:27.006Z,28.70
2019-04-28T11:13:57.098Z,30.10
2019-04-28T11:16:35.153Z,31.10
2019-04-28T11:19:05.711Z,33.60
2019-04-28T11:21:35.877Z,34.30
2019-04-28T11:24:05.877Z,35.70
2019-04-28T11:26:35.569Z,36.30
2019-04-28T11:29:05.501Z,36.30
2019-04-28T11:31:35.283Z,35.90
2019-04-28T11:34:12.033Z,37.10
2019-04-28T11:36:41.872Z,35.40
2019-04-28T11:39:14.175Z,37.20
2019-04-28T11:41:44.020Z,37.10
2019-04-28T11:44:13.751Z,38.20
2019-04-28T11:46:43.575Z,38.10
2019-04-28T11:49:13.176Z,39.70
2019-04-28T11:51:43.149Z,39.60
2019-04-28T11:54:12.899Z,39.60
2019-04-28T11:56:42.766Z,39.40
2019-04-28T11:59:12.533Z,40.90
2019-04-28T12:01:42.542Z,40.30
2019-04-28T12:04:14.149Z,40.60
2019-04-28T12:06:43.999Z,42.00
2019-04-28T12:09:38.585Z,41.80
2019-04-28T12:12:13.805Z,42.10
2019-04-28T12:14:48.557Z,42.70
2019-04-28T12:17:49.504Z,43.20
2019-04-28T12:20:21.639Z,42.10
2019-04-28T12:22:51.385Z,41.20
2019-04-28T12:25:21.368Z,41.60
2019-04-28T12:27:51.339Z,41.10
2019-04-28T12:30:21.255Z,40.10
2019-04-28T12:32:51.111Z,41.70
2019-04-28T12:35:20.889Z,40.80
2019-04-28T12:37:50.902Z,39.90
2019-04-28T12:40:22.621Z,40.20
2019-04-28T12:42:51.990Z,40.30
2019-04-28T12:45:34.567Z,41.60
2019-04-28T12:47:53.979Z,42.00
2019-04-28T12:50:28.553Z,41.80
2019-04-28T12:52:58.329Z,43.30
2019-04-28T12:55:28.153Z,42.00
2019-04-28T12:57:57.966Z,41.40
2019-04-28T13:01:01.897Z,41.80
2019-04-28T13:03:53.418Z,42.30
2019-04-28T13:06:23.140Z,43.10
2019-04-28T13:08:53.293Z,42.50
2019-04-28T13:11:27.482Z,42.00
2019-04-28T13:13:59.994Z,41.60
2019-04-28T13:16:29.822Z,42.10
2019-04-28T13:18:59.822Z,43.30
2019-04-28T13:21:29.708Z,43.40
2019-04-28T13:23:59.681Z,44.40
2019-04-28T13:26:45.165Z,43.50
2019-04-28T13:29:16.926Z,43.70
2019-04-28T13:31:50.358Z,44.60
2019-04-28T13:34:24.930Z,44.20
2019-04-28T13:36:55.503Z,43.60
2019-04-28T13:39:35.543Z,42.60
2019-04-28T13:42:21.554Z,42.80
2019-04-28T13:45:02.668Z,42.20
2019-04-28T13:47:53.543Z,43.20
2019-04-28T13:50:31.324Z,43.20
2019-04-28T13:53:04.158Z,43.00
2019-04-28T13:56:07.317Z,42.90
2019-04-28T13:58:40.325Z,43.50
2019-04-28T14:01:33.122Z,44.30
2019-04-28T14:04:22.514Z,43.80
2019-04-28T14:06:59.102Z,44.00
2019-04-28T14:09:31.502Z,43.30
2019-04-28T14:12:01.484Z,43.90
2019-04-28T14:14:34.758Z,43.40
2019-04-28T14:17:10.725Z,44.50
2019-04-28T14:19:40.990Z,44.20
2019-04-28T14:22:18.534Z,45.20
2019-04-28T14:24:50.341Z,44.10
2019-04-28T14:27:24.203Z,42.60
2019-04-28T14:29:54.361Z,41.90
2019-04-28T14:32:27.597Z,42.50
2019-04-28T14:34:58.957Z,41.10
2019-04-28T14:37:29.156Z,41.10
2019-04-28T14:39:59.366Z,44.00
2019-04-28T14:42:30.612Z,41.60
2019-04-28T14:45:01.273Z,43.00
2019-04-28T14:47:31.578Z,43.70
2019-04-28T14:50:02.954Z,43.20
2019-04-28T14:52:38.901Z,42.90
2019-04-28T14:55:12.553Z,42.40
2019-04-28T14:57:42.741Z,42.80
2019-04-28T15:00:17.445Z,43.30
2019-04-28T15:02:58.218Z,44.40
2019-04-28T15:05:48.887Z,44.90
2019-04-28T15:08:57.721Z,46.20
2019-04-28T15:11:49.268Z,47.40
2019-04-28T15:14:19.247Z,48.20
2019-04-28T15:16:49.528Z,48.50
2019-04-28T15:19:20.471Z,48.00
2019-04-28T15:21:50.820Z,48.30
2019-04-28T15:24:20.586Z,48.70
2019-04-28T15:26:50.827Z,47.50
2019-04-28T15:29:20.533Z,47.00
2019-04-28T15:31:50.755Z,46.20
2019-04-28T15:37:08.914Z,45.40
2019-04-28T15:39:27.618Z,46.30
2019-04-28T15:41:57.281Z,46.30
2019-04-28T15:44:27.115Z,46.70
2019-04-28T15:46:56.799Z,47.10
2019-04-28T15:49:26.685Z,47.00
2019-04-28T15:51:56.328Z,47.60
2019-04-28T15:54:26.212Z,47.70
2019-04-28T15:56:56.059Z,47.50
2019-04-28T15:59:26.224Z,47.80
2019-04-28T16:01:56.268Z,46.90
2019-04-28T16:04:25.994Z,46.60
2019-04-28T16:06:55.635Z,47.50
2019-04-28T16:09:25.456Z,47.50
2019-04-28T16:11:55.159Z,48.00
2019-04-28T16:14:25.332Z,48.50
2019-04-28T16:16:55.004Z,47.80
2019-04-28T16:19:24.772Z,48.50
2019-04-28T16:21:54.463Z,49.30
2019-04-28T16:24:26.244Z,48.40
2019-04-28T16:26:56.176Z,48.20
2019-04-28T16:29:25.758Z,48.80
2019-04-28T16:31:55.603Z,48.70
2019-04-28T16:34:25.252Z,48.00
2019-04-28T16:36:55.025Z,48.40
2019-04-28T16:39:24.857Z,49.10
2019-04-28T16:41:59.637Z,49.10
2019-04-28T16:44:40.160Z,49.50
2019-04-28T16:47:09.986Z,50.60
2019-04-28T16:49:40.104Z,50.70
2019-04-28T16:52:09.886Z,50.80
2019-04-28T16:54:39.600Z,50.30
2019-04-28T16:57:34.143Z,51.10
2019-04-28T17:00:13.228Z,51.00
2019-04-28T17:02:46.565Z,51.60
2019-04-28T17:05:16.697Z,51.50
2019-04-28T17:07:52.741Z,51.70
2019-04-28T17:10:17.861Z,51.60
2019-04-28T17:12:48.258Z,51.50
2019-04-28T17:15:18.187Z,51.40
2019-04-28T17:17:51.168Z,51.10
2019-04-28T17:20:20.806Z,51.80
2019-04-28T17:22:51.466Z,53.70
2019-04-28T17:25:22.100Z,56.60
2019-04-28T17:27:52.238Z,57.90
2019-04-28T17:30:23.837Z,58.80
2019-04-28T17:32:55.635Z,60.60
2019-04-28T17:35:25.841Z,61.10
2019-04-28T17:38:06.388Z,60.90
2019-04-28T17:40:27.578Z,63.00
2019-04-28T17:42:57.830Z,62.50
2019-04-28T17:45:27.929Z,62.90
2019-04-28T17:48:00.770Z,64.30
2019-04-28T17:50:32.119Z,65.90
2019-04-28T17:53:01.867Z,66.40
2019-04-28T17:55:31.772Z,66.70
2019-04-28T17:58:01.482Z,66.80
2019-04-28T18:00:49.415Z,67.30
2019-04-28T18:03:25.993Z,68.00
2019-04-28T18:06:18.002Z,68.40
2019-04-28T18:08:45.462Z,68.90
2019-04-28T18:11:15.368Z,70.00
2019-04-28T18:13:46.362Z,69.40
2019-04-28T18:16:28.598Z,70.50
2019-04-28T18:19:04.806Z,70.90
2019-04-28T18:21:34.911Z,71.50
2019-04-28T18:24:04.842Z,71.30
2019-04-28T18:26:34.659Z,71.80
2019-04-28T18:29:04.898Z,72.40
2019-04-28T18:31:56.672Z,72.80
2019-04-28T18:34:53.955Z,72.90
2019-04-28T18:37:42.645Z,73.00
2019-04-28T18:40:30.435Z,73.50
2019-04-28T18:43:19.153Z,73.80
2019-04-28T18:45:48.714Z,74.90
2019-04-28T18:48:20.535Z,74.60
2019-04-28T18:50:52.098Z,75.30
2019-04-28T18:53:21.665Z,75.40
2019-04-28T18:55:51.445Z,75.50
2019-04-28T18:58:21.292Z,75.70
2019-04-28T19:00:59.965Z,75.80
2019-04-28T19:03:30.268Z,76.20
2019-04-28T19:06:03.716Z,76.70
2019-04-28T19:08:48.995Z,77.10
2019-04-28T19:11:27.852Z,78.10
2019-04-28T19:14:01.597Z,78.00
2019-04-28T19:16:49.881Z,77.80
2019-04-28T19:19:20.497Z,78.10
2019-04-28T19:21:56.640Z,77.50
2019-04-28T19:24:27.096Z,77.60
2019-04-28T19:26:56.730Z,77.30
2019-04-28T19:29:26.470Z,77.60
2019-04-28T19:31:56.704Z,77.60
2019-04-28T19:34:26.346Z,77.80
2019-04-28T19:36:56.148Z,78.10
2019-04-28T19:39:25.929Z,78.50
2019-04-28T19:41:55.689Z,77.70
2019-04-28T19:44:25.353Z,78.10
2019-04-28T19:46:55.167Z,77.60
2019-04-28T19:49:24.817Z,77.30
2019-04-28T19:51:55.427Z,77.40
2019-04-28T19:54:29.110Z,77.30
2019-04-28T19:57:12.726Z,77.30
2019-04-28T19:59:59.626Z,77.50
2019-04-28T20:02:32.158Z,78.50
2019-04-28T20:05:01.841Z,78.90
2019-04-28T20:07:31.576Z,78.50
2019-04-28T20:10:01.253Z,79.10
2019-04-28T20:12:31.244Z,78.80
2019-04-28T20:15:01.117Z,78.80
2019-04-28T20:17:30.750Z,77.70
2019-04-28T20:20:00.421Z,77.70
2019-04-28T20:22:30.408Z,77.60
2019-04-28T20:25:00.139Z,77.60
2019-04-28T20:27:29.765Z,77.30
2019-04-28T20:29:59.486Z,77.90
2019-04-28T20:32:30.877Z,78.20
2019-04-28T20:35:01.100Z,78.80
2019-04-28T20:37:40.612Z,78.70
2019-04-28T20:40:15.517Z,79.00
2019-04-28T20:42:56.292Z,80.50
2019-04-28T20:45:26.404Z,81.80
2019-04-28T20:47:56.083Z,81.80
2019-04-28T20:50:25.782Z,82.50
2019-04-28T20:52:55.412Z,83.50
2019-04-28T20:55:25.015Z,83.30
2019-04-28T20:57:55.799Z,83.90
2019-04-28T21:00:25.343Z,84.30
2019-04-28T21:02:54.986Z,84.40
2019-04-28T21:05:24.727Z,83.80
2019-04-28T21:07:54.341Z,83.20
2019-04-28T21:10:36.894Z,83.20
2019-04-28T21:12:55.317Z,83.20
2019-04-28T21:15:25.075Z,82.70
2019-04-28T21:17:55.076Z,82.60
2019-04-28T21:20:24.775Z,82.40
2019-04-28T21:22:54.529Z,82.90
2019-04-28T21:25:26.273Z,83.80
2019-04-28T21:27:56.089Z,83.50
2019-04-28T21:30:25.772Z,84.20
2019-04-28T21:32:55.374Z,84.10
2019-04-28T21:35:25.093Z,84.00
2019-04-28T21:37:54.875Z,84.10
2019-04-28T21:40:25.498Z,84.10
2019-04-28T21:43:01.391Z,84.50
2019-04-28T21:45:56.470Z,84.70
2019-04-28T21:48:38.462Z,84.40
2019-04-28T21:51:11.431Z,84.60
2019-04-28T21:53:39.655Z,84.60
2019-04-28T21:56:09.367Z,85.00
2019-04-28T21:58:39.008Z,85.00
2019-04-28T22:01:10.044Z,85.30
2019-04-28T22:03:39.739Z,85.40
2019-04-28T22:06:09.435Z,85.10
2019-04-28T22:08:39.452Z,85.40
2019-04-28T22:11:09.236Z,86.00
2019-04-28T22:13:38.764Z,85.70
2019-04-28T22:16:08.826Z,85.60
2019-04-28T22:18:38.501Z,85.80
2019-04-28T22:21:08.211Z,85.60
2019-04-28T22:23:56.481Z,85.70
2019-04-28T22:26:48.624Z,86.00
2019-04-28T22:29:18.294Z,85.50
2019-04-28T22:31:47.916Z,85.70
2019-04-28T22:34:17.556Z,85.80
2019-04-28T22:36:47.908Z,85.90
2019-04-28T22:39:17.738Z,85.80
2019-04-28T22:41:47.537Z,85.70
2019-04-28T22:44:17.105Z,86.30
2019-04-28T22:46:47.099Z,86.20
2019-04-28T22:49:16.703Z,86.00
2019-04-28T22:51:46.545Z,86.10
2019-04-28T22:54:25.717Z,85.80
2019-04-28T22:57:02.236Z,86.20
2019-04-28T22:59:35.819Z,85.90
2019-04-28T23:02:14.327Z,86.30
2019-04-28T23:05:05.729Z,86.10
2019-04-28T23:07:35.520Z,86.20
2019-04-28T23:10:06.326Z,85.80
2019-04-28T23:15:14.006Z,86.10
2019-04-28T23:17:43.008Z,86.20
2019-04-28T23:20:13.748Z,86.50
2019-04-28T23:22:47.521Z,86.30
2019-04-28T23:25:17.152Z,86.40
2019-04-28T23:27:46.839Z,86.40
2019-04-28T23:30:35.848Z,86.50
2019-04-28T23:33:05.742Z,86.40
2019-04-28T23:35:35.441Z,86.30
2019-04-28T23:38:05.298Z,85.90
2019-04-28T23:40:36.529Z,85.90
2019-04-28T23:43:09.946Z,85.80
2019-04-28T23:45:39.812Z,86.00
2019-04-28T23:48:09.391Z,85.90
2019-04-28T23:50:53.899Z,86.20
2019-04-28T23:53:42.489Z,86.30
2019-04-28T23:56:12.077Z,86.50
2019-04-28T23:58:41.737Z,86.60
